^^

..:: Storico WU ::..




Lo storico viene creato da WUnderground con i dati che la stazione Meteomincio invia al loro server. L' aggiornamento viene fatto ogni 5 minuti circa, tuttavia possono esserci intervalli pił ampi a causa di errori, interruzioni di servizio o problemi nell' invio tramite FTP.


Storico stazione MeteoMincio
Giorno Sommario per Febbario 06, 2022 Unità:  Inglese    Metrico   Entrambi
Giorno Settimana Mese Anno
  Max: Min: Media:
Temperatura: 46.4 °F 30.2 °F 39.2 °F
Dew Point: 44.6 °F 28.4 °F 37.9 °F
Umidità: 99% 89% 95%
Velocità vento: 9.9mph 0mph 4.5mph
Raffica: 11.8mph - -
Direzione- - West
Pressione: 30.3 in 29.9 in -
Precipitazioni: 0 in    
 
 
Tabulato Dati per Febbario 06, 2022
Ora Temperatura Dew Point Pressione Direzione Velocità vento Raffica Umidità Intensità pioggia (oraria) Info solare Situazione
00:04 32 °F 32 °F 30.2 in WSW 1.2 mph 2.5 mph 97% 0 in 0.00 W/m2 unknown
00:09 32 °F 32 °F 30.3 in WSW 1.2 mph 2.5 mph 97% 0 in 0.00 W/m2 unknown
00:14 32 °F 32 °F 30.2 in West 1.9 mph 3.1 mph 97% 0 in 0.00 W/m2 unknown
00:19 32 °F 32 °F 30.2 in West 1.9 mph 3.7 mph 97% 0 in 0.00 W/m2 unknown
00:24 32 °F 32 °F 30.2 in Calm   3.1 mph 97% 0 in 0.00 W/m2 unknown
00:29 32 °F 32 °F 30.2 in West 1.2 mph 2.5 mph 97% 0 in 0.00 W/m2 unknown
00:34 32 °F 32 °F 30.2 in West 1.2 mph 2.5 mph 97% 0 in 0.00 W/m2 unknown
00:39 32 °F 32 °F 30.2 in West 1.2 mph 2.5 mph 97% 0 in 0.00 W/m2 unknown
00:44 32 °F 32 °F 30.2 in West 1.2 mph 2.5 mph 97% 0 in 0.00 W/m2 unknown
00:49 32 °F 32 °F 30.2 in West 1.2 mph 2.5 mph 97% 0 in 0.00 W/m2 unknown
00:54 32 °F 30.2 °F 30.2 in West 1.2 mph 2.5 mph 97% 0 in 0.00 W/m2 unknown
00:59 32 °F 30.2 °F 30.2 in Calm   1.9 mph 97% 0 in 0.00 W/m2 unknown
01:04 32 °F 30.2 °F 30.2 in Calm   1.2 mph 97% 0 in 0.00 W/m2 unknown
01:09 32 °F 30.2 °F 30.2 in West 0.6 mph 1.2 mph 97% 0 in 0.00 W/m2 unknown
01:14 32 °F 30.2 °F 30.2 in West 1.2 mph 2.5 mph 97% 0 in 0.00 W/m2 unknown
01:19 32 °F 30.2 °F 30.2 in West 1.2 mph 1.9 mph 97% 0 in 0.00 W/m2 unknown
01:24 32 °F 30.2 °F 30.2 in Calm   1.2 mph 97% 0 in 0.00 W/m2 unknown
01:29 32 °F 30.2 °F 30.2 in Calm     97% 0 in 0.00 W/m2 unknown
01:34 32 °F 32 °F 30.2 in Calm     97% 0 in 0.00 W/m2 unknown
01:39 32 °F 32 °F 30.2 in Calm     98% 0 in 0.00 W/m2 unknown
01:44 32 °F 32 °F 30.2 in Calm     98% 0 in 0.00 W/m2 unknown
01:49 32 °F 32 °F 30.2 in Calm     98% 0 in 0.00 W/m2 unknown
01:54 32 °F 32 °F 30.2 in Calm     98% 0 in 0.00 W/m2 unknown
01:59 32 °F 32 °F 30.2 in NNW 1.2 mph 2.5 mph 98% 0 in 0.00 W/m2 unknown
02:04 33.8 °F 32 °F 30.2 in North 1.9 mph 2.5 mph 98% 0 in 0.00 W/m2 unknown
02:09 33.8 °F 33.8 °F 30.2 in North 1.2 mph 2.5 mph 98% 0 in 0.00 W/m2 unknown
02:14 33.8 °F 33.8 °F 30.2 in NNE 1.2 mph 2.5 mph 98% 0 in 0.00 W/m2 unknown
02:19 33.8 °F 33.8 °F 30.2 in North 1.9 mph 3.7 mph 98% 0 in 0.00 W/m2 unknown
02:24 33.8 °F 33.8 °F 30.2 in North 1.9 mph 3.1 mph 98% 0 in 0.00 W/m2 unknown
02:29 33.8 °F 33.8 °F 30.2 in Calm   1.9 mph 98% 0 in 0.00 W/m2 unknown
02:34 33.8 °F 33.8 °F 30.2 in Calm     98% 0 in 0.00 W/m2 unknown
02:39 33.8 °F 33.8 °F 30.2 in Calm     98% 0 in 0.00 W/m2 unknown
02:44 33.8 °F 33.8 °F 30.2 in Calm     98% 0 in 0.00 W/m2 unknown
02:49 33.8 °F 33.8 °F 30.2 in Calm     98% 0 in 0.00 W/m2 unknown
02:54 33.8 °F 32 °F 30.2 in Calm     98% 0 in 0.00 W/m2 unknown
02:59 32 °F 32 °F 30.2 in SSW 2.5 mph 3.7 mph 98% 0 in 0.00 W/m2 unknown
03:04 32 °F 32 °F 30.2 in SSW 2.5 mph 3.7 mph 98% 0 in 0.00 W/m2 unknown
03:09 32 °F 32 °F 30.2 in SSW 1.2 mph 3.1 mph 98% 0 in 0.00 W/m2 unknown
03:14 32 °F 32 °F 30.2 in SSW 1.9 mph 2.5 mph 98% 0 in 0.00 W/m2 unknown
03:19 32 °F 32 °F 30.2 in SW 3.7 mph 5 mph 98% 0 in 0.00 W/m2 unknown
03:24 32 °F 32 °F 30.2 in SW 3.7 mph 5 mph 98% 0 in 0.00 W/m2 unknown
03:29 32 °F 30.2 °F 30.2 in SW 1.9 mph 5 mph 98% 0 in 0.00 W/m2 unknown
03:34 32 °F 30.2 °F 30.2 in SW 3.1 mph 3.7 mph 98% 0 in 0.00 W/m2 unknown
03:39 30.2 °F 30.2 °F 30.2 in SW 2.5 mph 3.7 mph 98% 0 in 0.00 W/m2 unknown
03:44 30.2 °F 30.2 °F 30.2 in SW 1.9 mph 3.1 mph 98% 0 in 0.00 W/m2 unknown
03:49 30.2 °F 30.2 °F 30.2 in SW 1.2 mph 2.5 mph 98% 0 in 0.00 W/m2 unknown
03:54 30.2 °F 30.2 °F 30.2 in West 1.2 mph 2.5 mph 98% 0 in 0.00 W/m2 unknown
03:59 30.2 °F 30.2 °F 30.2 in WNW 2.5 mph 3.7 mph 98% 0 in 0.00 W/m2 unknown
04:04 30.2 °F 30.2 °F 30.2 in WNW 1.9 mph 3.7 mph 98% 0 in 0.00 W/m2 unknown
04:09 30.2 °F 30.2 °F 30.2 in West 3.1 mph 3.7 mph 98% 0 in 0.00 W/m2 unknown
04:14 30.2 °F 30.2 °F 30.2 in West 3.7 mph 5 mph 98% 0 in 0.00 W/m2 unknown
04:19 30.2 °F 30.2 °F 30.2 in West 3.7 mph 5 mph 98% 0 in 0.00 W/m2 unknown
04:24 30.2 °F 30.2 °F 30.2 in WSW 3.1 mph 3.7 mph 98% 0 in 0.00 W/m2 unknown
04:29 30.2 °F 30.2 °F 30.2 in WSW 3.1 mph 3.7 mph 98% 0 in 0.00 W/m2 unknown
04:34 30.2 °F 28.4 °F 30.2 in WSW 3.1 mph 3.7 mph 98% 0 in 0.00 W/m2 unknown
04:39 30.2 °F 28.4 °F 30.2 in WSW 3.1 mph 3.7 mph 98% 0 in 0.00 W/m2 unknown
04:44 30.2 °F 28.4 °F 30.2 in West 3.1 mph 3.7 mph 98% 0 in 0.00 W/m2 unknown
04:49 30.2 °F 30.2 °F 30.2 in West 3.1 mph 3.7 mph 98% 0 in 0.00 W/m2 unknown
04:54 30.2 °F 30.2 °F 30.2 in West 3.1 mph 3.7 mph 98% 0 in 0.00 W/m2 unknown
04:59 30.2 °F 30.2 °F 30.2 in WNW 2.5 mph 3.7 mph 98% 0 in 0.00 W/m2 unknown
05:04 32 °F 30.2 °F 30.2 in WNW 2.5 mph 3.7 mph 98% 0 in 0.00 W/m2 unknown
05:09 32 °F 30.2 °F 30.2 in WNW 3.1 mph 3.7 mph 98% 0 in 0.00 W/m2 unknown
05:14 32 °F 32 °F 30.2 in WNW 2.5 mph 3.7 mph 98% 0 in 0.00 W/m2 unknown
05:19 32 °F 32 °F 30.2 in WNW 2.5 mph 3.7 mph 98% 0 in 0.00 W/m2 unknown
05:24 32 °F 32 °F 30.2 in NW 1.9 mph 3.7 mph 98% 0 in 0.00 W/m2 unknown
05:29 32 °F 32 °F 30.2 in NW 1.2 mph 3.1 mph 98% 0 in 0.00 W/m2 unknown
05:34 33.8 °F 32 °F 30.2 in NW 1.9 mph 3.7 mph 98% 0 in 0.00 W/m2 unknown
05:39 33.8 °F 32 °F 30.2 in NW 1.9 mph 3.7 mph 98% 0 in 0.00 W/m2 unknown
05:44 33.8 °F 32 °F 30.2 in WNW 2.5 mph 3.7 mph 98% 0 in 0.00 W/m2 unknown
05:49 33.8 °F 32 °F 30.2 in WNW 1.2 mph 3.7 mph 98% 0 in 0.00 W/m2 unknown
05:54 33.8 °F 33.8 °F 30.2 in NW 0.6 mph 1.9 mph 98% 0 in 0.00 W/m2 unknown
05:59 33.8 °F 33.8 °F 30.2 in NW 1.2 mph 2.5 mph 98% 0 in 0.00 W/m2 unknown
06:04 33.8 °F 33.8 °F 30.2 in NW 1.9 mph 3.1 mph 98% 0 in 0.00 W/m2 unknown
06:09 33.8 °F 33.8 °F 30.2 in NW 1.9 mph 3.7 mph 98% 0 in 0.00 W/m2 unknown
06:14 33.8 °F 33.8 °F 30.2 in NW 2.5 mph 3.7 mph 98% 0 in 0.00 W/m2 unknown
06:19 33.8 °F 33.8 °F 30.2 in NW 1.9 mph 3.7 mph 98% 0 in 0.00 W/m2 unknown
06:24 33.8 °F 33.8 °F 30.2 in NW 0.6 mph 3.1 mph 98% 0 in 0.00 W/m2 unknown
06:29 33.8 °F 33.8 °F 30.2 in WNW 1.2 mph 2.5 mph 98% 0 in 0.00 W/m2 unknown
06:34 33.8 °F 33.8 °F 30.2 in NW 1.2 mph 1.9 mph 98% 0 in 0.00 W/m2 unknown
06:39 33.8 °F 33.8 °F 30.2 in NW 0.6 mph 1.2 mph 98% 0 in 0.00 W/m2 unknown
06:44 33.8 °F 33.8 °F 30.2 in NW 1.2 mph 1.2 mph 98% 0 in 0.00 W/m2 unknown
06:49 33.8 °F 33.8 °F 30.2 in WNW 0.6 mph 1.9 mph 99% 0 in 0.00 W/m2 unknown
06:54 35.6 °F 33.8 °F 30.2 in WNW 1.2 mph 2.5 mph 99% 0 in 0.00 W/m2 unknown
06:59 35.6 °F 33.8 °F 30.2 in WNW 1.9 mph 3.1 mph 99% 0 in 0.00 W/m2 unknown
07:04 35.6 °F 33.8 °F 30.2 in WNW 2.5 mph 3.7 mph 99% 0 in 0.00 W/m2 unknown
07:09 35.6 °F 33.8 °F 30.2 in WNW 1.9 mph 3.1 mph 99% 0 in 0.00 W/m2 unknown
07:14 35.6 °F 33.8 °F 30.2 in West 1.2 mph 2.5 mph 99% 0 in 0.00 W/m2 unknown
07:19 35.6 °F 33.8 °F 30.2 in West 1.9 mph 2.5 mph 99% 0 in 0.00 W/m2 unknown
07:24 35.6 °F 33.8 °F 30.2 in West 1.9 mph 3.1 mph 98% 0 in 0.00 W/m2 unknown
07:29 35.6 °F 35.6 °F 30.2 in WNW 1.9 mph 3.7 mph 99% 0 in 0.00 W/m2 unknown
07:34 35.6 °F 35.6 °F 30.2 in WNW 2.5 mph 3.7 mph 99% 0 in 0.00 W/m2 unknown
07:39 35.6 °F 35.6 °F 30.2 in NW 2.5 mph 3.7 mph 99% 0 in 0.00 W/m2 unknown
07:44 35.6 °F 35.6 °F 30.2 in NW 1.9 mph 3.7 mph 99% 0 in 5.00 W/m2 unknown
07:49 35.6 °F 35.6 °F 30.2 in NW 1.9 mph 3.7 mph 99% 0 in 9.00 W/m2 unknown
07:54 35.6 °F 35.6 °F 30.2 in NW 2.5 mph 3.7 mph 99% 0 in 9.00 W/m2 unknown
07:59 35.6 °F 35.6 °F 30.2 in NW 2.5 mph 3.7 mph 99% 0 in 11.00 W/m2 unknown
08:04 35.6 °F 35.6 °F 30.2 in WNW 3.1 mph 3.7 mph 99% 0 in 12.00 W/m2 unknown
08:09 35.6 °F 35.6 °F 30.2 in WNW 2.5 mph 3.7 mph 99% 0 in 21.00 W/m2 unknown
08:14 35.6 °F 35.6 °F 30.2 in WNW 2.5 mph 3.7 mph 99% 0 in 23.00 W/m2 unknown
08:19 35.6 °F 35.6 °F 30.2 in WNW 3.1 mph 3.7 mph 99% 0 in 21.00 W/m2 unknown
08:24 35.6 °F 35.6 °F 30.2 in WNW 3.7 mph 5 mph 99% 0 in 25.00 W/m2 unknown
08:29 35.6 °F 35.6 °F 30.2 in WNW 3.1 mph 5 mph 99% 0 in 35.00 W/m2 unknown
08:34 35.6 °F 35.6 °F 30.2 in WNW 4.3 mph 6.2 mph 99% 0 in 49.00 W/m2 unknown
08:39 35.6 °F 35.6 °F 30.2 in WNW 4.3 mph 6.2 mph 99% 0 in 53.00 W/m2 unknown
08:44 35.6 °F 35.6 °F 30.2 in West 4.3 mph 6.2 mph 99% 0 in 58.00 W/m2 unknown
08:49 37.4 °F 35.6 °F 30.2 in West 3.7 mph 5 mph 99% 0 in 67.00 W/m2 unknown
08:54 37.4 °F 35.6 °F 30.2 in WNW 4.3 mph 5 mph 99% 0 in 98.00 W/m2 unknown
08:59 37.4 °F 35.6 °F 30.2 in WNW 5 mph 5 mph 99% 0 in 107.00 W/m2 unknown
09:04 37.4 °F 37.4 °F 30.2 in WNW 3.7 mph 5 mph 99% 0 in 98.00 W/m2 unknown
09:09 37.4 °F 37.4 °F 30.2 in WNW 4.3 mph 5 mph 99% 0 in 120.00 W/m2 unknown
09:14 37.4 °F 37.4 °F 30.2 in WNW 3.1 mph 3.7 mph 99% 0 in 118.00 W/m2 unknown
09:19 37.4 °F 37.4 °F 30.2 in WNW 4.3 mph 6.2 mph 99% 0 in 86.00 W/m2 unknown
09:24 37.4 °F 37.4 °F 30.2 in WNW 4.3 mph 6.2 mph 99% 0 in 104.00 W/m2 unknown
09:29 37.4 °F 37.4 °F 30.2 in WNW 4.3 mph 5 mph 99% 0 in 98.00 W/m2 unknown
09:34 37.4 °F 37.4 °F 30.2 in WNW 5 mph 5 mph 99% 0 in 113.00 W/m2 unknown
09:39 39.2 °F 37.4 °F 30.2 in WNW 4.3 mph 6.2 mph 99% 0 in 128.00 W/m2 unknown
09:44 39.2 °F 39.2 °F 30.2 in West 5 mph 6.2 mph 99% 0 in 162.00 W/m2 unknown
09:49 39.2 °F 39.2 °F 30.2 in West 3.7 mph 5 mph 99% 0 in 199.00 W/m2 unknown
09:54 39.2 °F 39.2 °F 30.2 in West 3.7 mph 5 mph 99% 0 in 214.00 W/m2 unknown
09:59 41 °F 39.2 °F 30.2 in West 4.3 mph 5 mph 99% 0 in 257.00 W/m2 unknown
10:04 41 °F 41 °F 30.2 in West 4.3 mph 6.2 mph 99% 0 in 257.00 W/m2 unknown
10:09 41 °F 41 °F 30.2 in WSW 4.3 mph 6.2 mph 99% 0 in 264.00 W/m2 unknown
10:14 41 °F 41 °F 30.2 in West 5.6 mph 8.1 mph 99% 0 in 211.00 W/m2 unknown
10:19 41 °F 41 °F 30.2 in WSW 5 mph 8.1 mph 99% 0 in 179.00 W/m2 unknown
10:24 42.8 °F 41 °F 30.2 in WSW 5.6 mph 6.8 mph 99% 0 in 174.00 W/m2 unknown
10:29 42.8 °F 42.8 °F 30.2 in WSW 6.2 mph 6.8 mph 99% 0 in 193.00 W/m2 unknown
10:34 42.8 °F 42.8 °F 30.2 in WSW 5 mph 6.2 mph 99% 0 in 220.00 W/m2 unknown
10:39 42.8 °F 42.8 °F 30.2 in WSW 4.3 mph 6.2 mph 99% 0 in 229.00 W/m2 unknown
10:44 42.8 °F 42.8 °F 30.2 in WSW 5 mph 6.2 mph 99% 0 in 250.00 W/m2 unknown
10:49 44.6 °F 44.6 °F 30.2 in WSW 5 mph 6.2 mph 99% 0 in 269.00 W/m2 unknown
10:54 44.6 °F 42.8 °F 30.2 in SW 5.6 mph 6.8 mph 99% 0 in 204.00 W/m2 unknown
10:59 44.6 °F 42.8 °F 30.2 in WSW 6.2 mph 8.1 mph 98% 0 in 176.00 W/m2 unknown
11:04 44.6 °F 42.8 °F 30.2 in WSW 5.6 mph 8.1 mph 97% 0 in 213.00 W/m2 unknown
11:09 44.6 °F 42.8 °F 30.2 in WSW 6.2 mph 8.1 mph 97% 0 in 176.00 W/m2 unknown
11:14 44.6 °F 42.8 °F 30.2 in West 6.2 mph 8.1 mph 96% 0 in 172.00 W/m2 unknown
11:19 44.6 °F 42.8 °F 30.2 in WSW 6.2 mph 8.1 mph 96% 0 in 114.00 W/m2 unknown
11:24 44.6 °F 42.8 °F 30.2 in WSW 4.3 mph 6.2 mph 95% 0 in 114.00 W/m2 unknown
11:29 44.6 °F 42.8 °F 30.2 in West 6.2 mph 8.1 mph 94% 0 in 130.00 W/m2 unknown
11:34 44.6 °F 42.8 °F 30.2 in West 6.2 mph 8.1 mph 93% 0 in 120.00 W/m2 unknown
11:39 44.6 °F 42.8 °F 30.2 in WNW 7.5 mph 8.1 mph 92% 0 in 132.00 W/m2 unknown
11:44 44.6 °F 42.8 °F 30.2 in WNW 6.2 mph 8.1 mph 92% 0 in 135.00 W/m2 unknown
11:49 44.6 °F 42.8 °F 30.2 in West 6.2 mph 8.1 mph 92% 0 in 95.00 W/m2 unknown
11:54 44.6 °F 42.8 °F 30.2 in West 6.8 mph 9.3 mph 92% 0 in 111.00 W/m2 unknown
11:59 44.6 °F 42.8 °F 30.2 in West 6.2 mph 8.1 mph 92% 0 in 113.00 W/m2 unknown
12:04 44.6 °F 42.8 °F 30.2 in WNW 6.2 mph 8.1 mph 92% 0 in 134.00 W/m2 unknown
12:09 44.6 °F 42.8 °F 30.2 in West 6.2 mph 8.1 mph 92% 0 in 134.00 W/m2 unknown
12:14 44.6 °F 42.8 °F 30.2 in West 6.2 mph 8.1 mph 92% 0 in 100.00 W/m2 unknown
12:19 44.6 °F 42.8 °F 30.2 in WNW 7.5 mph 9.3 mph 91% 0 in 105.00 W/m2 unknown
12:24 44.6 °F 42.8 °F 30.2 in WNW 6.8 mph 9.3 mph 91% 0 in 79.00 W/m2 unknown
12:29 44.6 °F 41 °F 30.2 in West 6.8 mph 9.3 mph 90% 0 in 77.00 W/m2 unknown
12:34 44.6 °F 42.8 °F 30.2 in West 6.8 mph 9.3 mph 91% 0 in 70.00 W/m2 unknown
12:39 44.6 °F 42.8 °F 30.2 in West 6.2 mph 8.7 mph 91% 0 in 77.00 W/m2 unknown
12:44 44.6 °F 41 °F 30.2 in West 6.8 mph 9.3 mph 91% 0 in 81.00 W/m2 unknown
12:49 44.6 °F 41 °F 30.2 in West 8.1 mph 10.6 mph 91% 0 in 90.00 W/m2 unknown
12:54 44.6 °F 41 °F 30.2 in WSW 8.7 mph 10.6 mph 91% 0 in 114.00 W/m2 unknown
12:59 44.6 °F 41 °F 30.2 in West 8.7 mph 10.6 mph 91% 0 in 132.00 W/m2 unknown
13:04 44.6 °F 41 °F 30.2 in NW 5 mph 9.9 mph 91% 0 in 116.00 W/m2 unknown
13:09 44.6 °F 41 °F 30.2 in NW 3.7 mph 5 mph 91% 0 in 120.00 W/m2 unknown
13:14 44.6 °F 42.8 °F 30.2 in NW 3.7 mph 5 mph 91% 0 in 113.00 W/m2 unknown
13:19 44.6 °F 42.8 °F 30.2 in NNW 3.1 mph 5 mph 91% 0 in 95.00 W/m2 unknown
13:24 44.6 °F 42.8 °F 30.2 in NW 3.1 mph 5 mph 91% 0 in 105.00 W/m2 unknown
13:29 44.6 °F 42.8 °F 30.2 in West 5.6 mph 6.8 mph 91% 0 in 105.00 W/m2 unknown
13:34 44.6 °F 42.8 °F 30.1 in West 5 mph 6.8 mph 91% 0 in 111.00 W/m2 unknown
13:39 44.6 °F 42.8 °F 30.1 in West 4.3 mph 6.2 mph 91% 0 in 125.00 W/m2 unknown
13:44 44.6 °F 42.8 °F 30.1 in WNW 5 mph 6.2 mph 91% 0 in 125.00 W/m2 unknown
13:49 44.6 °F 42.8 °F 30.1 in NW 6.2 mph 8.1 mph 91% 0 in 167.00 W/m2 unknown
13:54 44.6 °F 42.8 °F 30.1 in West 5.6 mph 8.1 mph 91% 0 in 227.00 W/m2 unknown
13:59 44.6 °F 42.8 °F 30.1 in WSW 3.7 mph 6.8 mph 91% 0 in 227.00 W/m2 unknown
14:04 44.6 °F 42.8 °F 30.1 in WSW 4.3 mph 6.8 mph 90% 0 in 178.00 W/m2 unknown
14:09 44.6 °F 42.8 °F 30.1 in SW 4.3 mph 6.8 mph 90% 0 in 149.00 W/m2 unknown
14:14 44.6 °F 42.8 °F 30.1 in SW 5.6 mph 6.8 mph 90% 0 in 165.00 W/m2 unknown
14:19 44.6 °F 42.8 °F 30.1 in SW 5 mph 6.8 mph 90% 0 in 195.00 W/m2 unknown
14:24 44.6 °F 42.8 °F 30.1 in WSW 6.2 mph 8.1 mph 90% 0 in 206.00 W/m2 unknown
14:29 44.6 °F 42.8 °F 30.1 in SW 6.2 mph 8.1 mph 89% 0 in 193.00 W/m2 unknown
14:34 44.6 °F 42.8 °F 30.1 in WSW 6.2 mph 8.1 mph 90% 0 in 167.00 W/m2 unknown
14:39 44.6 °F 42.8 °F 30.1 in SW 6.2 mph 8.1 mph 89% 0 in 174.00 W/m2 unknown
14:44 44.6 °F 42.8 °F 30.1 in WSW 6.8 mph 8.7 mph 89% 0 in 158.00 W/m2 unknown
14:49 44.6 °F 42.8 °F 30.1 in SW 7.5 mph 9.3 mph 90% 0 in 207.00 W/m2 unknown
14:54 46.4 °F 42.8 °F 30.1 in WSW 6.2 mph 8.7 mph 90% 0 in 186.00 W/m2 unknown
14:59 46.4 °F 42.8 °F 30.1 in SW 6.2 mph 8.1 mph 89% 0 in 114.00 W/m2 unknown
15:04 46.4 °F 42.8 °F 30.1 in SW 6.2 mph 8.1 mph 89% 0 in 90.00 W/m2 unknown
15:09 46.4 °F 42.8 °F 30.1 in WSW 6.8 mph 8.7 mph 89% 0 in 104.00 W/m2 unknown
15:14 44.6 °F 42.8 °F 30.1 in SW 6.2 mph 8.7 mph 89% 0 in 111.00 W/m2 unknown
15:19 44.6 °F 42.8 °F 30.1 in SW 6.2 mph 8.1 mph 89% 0 in 104.00 W/m2 unknown
15:24 44.6 °F 42.8 °F 30.1 in SW 5.6 mph 8.1 mph 90% 0 in 100.00 W/m2 unknown
15:29 44.6 °F 42.8 °F 30.1 in SW 5.6 mph 8.1 mph 90% 0 in 118.00 W/m2 unknown
15:34 44.6 °F 42.8 °F 30.1 in SW 5.6 mph 8.1 mph 90% 0 in 118.00 W/m2 unknown
15:39 44.6 °F 42.8 °F 30.1 in SW 5.6 mph 9.3 mph 90% 0 in 114.00 W/m2 unknown
15:44 44.6 °F 42.8 °F 30.1 in SW 6.8 mph 8.7 mph 90% 0 in 97.00 W/m2 unknown
15:49 44.6 °F 42.8 °F 30.1 in SW 6.8 mph 9.3 mph 90% 0 in 97.00 W/m2 unknown
15:54 44.6 °F 42.8 °F 30.1 in WSW 7.5 mph 10.6 mph 90% 0 in 93.00 W/m2 unknown
15:59 44.6 °F 42.8 °F 30.1 in WSW 7.5 mph 9.9 mph 90% 0 in 90.00 W/m2 unknown
16:04 44.6 °F 42.8 °F 30.1 in SW 6.8 mph 9.3 mph 90% 0 in 65.00 W/m2 unknown
16:09 44.6 °F 42.8 °F 30.1 in SW 6.8 mph 9.3 mph 90% 0 in 63.00 W/m2 unknown
16:14 44.6 °F 42.8 °F 30.1 in SW 6.8 mph 9.3 mph 90% 0 in 58.00 W/m2 unknown
16:19 44.6 °F 42.8 °F 30.1 in SW 6.2 mph 9.3 mph 90% 0 in 58.00 W/m2 unknown
16:24 44.6 °F 42.8 °F 30.1 in SW 8.1 mph 9.3 mph 91% 0 in 47.00 W/m2 unknown
16:29 44.6 °F 42.8 °F 30.1 in SW 7.5 mph 9.3 mph 90% 0 in 44.00 W/m2 unknown
16:34 44.6 °F 42.8 °F 30.1 in WSW 8.1 mph 11.8 mph 90% 0 in 37.00 W/m2 unknown
16:39 44.6 °F 42.8 °F 30.1 in WSW 7.5 mph 11.8 mph 91% 0 in 35.00 W/m2 unknown
16:44 44.6 °F 42.8 °F 30.1 in WSW 6.8 mph 9.3 mph 91% 0 in 35.00 W/m2 unknown
16:49 44.6 °F 42.8 °F 30.1 in WSW 6.2 mph 10.6 mph 91% 0 in 30.00 W/m2 unknown
16:54 44.6 °F 42.8 °F 30.1 in WSW 7.5 mph 11.8 mph 91% 0 in 19.00 W/m2 unknown
16:59 44.6 °F 42.8 °F 30.1 in WSW 7.5 mph 11.8 mph 91% 0 in 19.00 W/m2 unknown
17:04 44.6 °F 41 °F 30.1 in SW 8.7 mph 11.8 mph 91% 0 in 12.00 W/m2 unknown
17:09 44.6 °F 41 °F 30.1 in WSW 9.9 mph 11.8 mph 91% 0 in 9.00 W/m2 unknown
17:14 44.6 °F 41 °F 30.1 in WSW 8.7 mph 10.6 mph 91% 0 in 9.00 W/m2 unknown
17:19 44.6 °F 41 °F 30.1 in SW 7.5 mph 9.9 mph 92% 0 in 7.00 W/m2 unknown
17:24 44.6 °F 41 °F 30.1 in SW 5.6 mph 8.7 mph 92% 0 in 0.00 W/m2 unknown
17:29 42.8 °F 41 °F 30.1 in WSW 5 mph 8.1 mph 92% 0 in 0.00 W/m2 unknown
17:34 42.8 °F 41 °F 30.1 in WSW 6.8 mph 8.1 mph 92% 0 in 0.00 W/m2 unknown
17:39 42.8 °F 41 °F 30.1 in WSW 6.8 mph 9.3 mph 92% 0 in 0.00 W/m2 unknown
17:44 42.8 °F 41 °F 30 in SW 8.1 mph 10.6 mph 92% 0 in 0.00 W/m2 unknown
17:49 42.8 °F 41 °F 30 in WSW 8.1 mph 9.9 mph 92% 0 in 0.00 W/m2 unknown
17:54 42.8 °F 41 °F 30 in SW 7.5 mph 9.3 mph 92% 0 in 0.00 W/m2 unknown
17:59 42.8 °F 41 °F 30 in SW 6.8 mph 8.7 mph 92% 0 in 0.00 W/m2 unknown
18:04 42.8 °F 41 °F 30 in WSW 6.2 mph 8.7 mph 92% 0 in 0.00 W/m2 unknown
18:09 42.8 °F 41 °F 30 in SW 6.2 mph 9.3 mph 92% 0 in 0.00 W/m2 unknown
18:14 42.8 °F 41 °F 30 in WSW 6.2 mph 9.3 mph 93% 0 in 0.00 W/m2 unknown
18:19 42.8 °F 41 °F 30 in SW 6.8 mph 9.3 mph 93% 0 in 0.00 W/m2 unknown
18:24 42.8 °F 41 °F 30 in WSW 6.8 mph 8.7 mph 93% 0 in 0.00 W/m2 unknown
18:29 42.8 °F 41 °F 30 in WSW 6.2 mph 9.3 mph 93% 0 in 0.00 W/m2 unknown
18:34 42.8 °F 41 °F 30 in WSW 6.2 mph 8.7 mph 93% 0 in 0.00 W/m2 unknown
18:39 42.8 °F 41 °F 30 in WSW 3.7 mph 6.8 mph 93% 0 in 0.00 W/m2 unknown
18:44 42.8 °F 41 °F 30 in West 3.1 mph 5 mph 93% 0 in 0.00 W/m2 unknown
18:49 42.8 °F 41 °F 30 in West 4.3 mph 6.2 mph 93% 0 in 0.00 W/m2 unknown
18:54 42.8 °F 41 °F 30 in West 6.8 mph 9.3 mph 93% 0 in 0.00 W/m2 unknown
18:59 42.8 °F 41 °F 30 in WSW 6.2 mph 8.7 mph 94% 0 in 0.00 W/m2 unknown
19:04 42.8 °F 41 °F 30 in West 5.6 mph 8.1 mph 94% 0 in 0.00 W/m2 unknown
19:09 42.8 °F 41 °F 30 in WSW 6.2 mph 6.8 mph 94% 0 in 0.00 W/m2 unknown
19:14 42.8 °F 41 °F 30 in WSW 5 mph 6.8 mph 94% 0 in 0.00 W/m2 unknown
19:19 42.8 °F 41 °F 30 in WSW 5.6 mph 8.1 mph 94% 0 in 0.00 W/m2 unknown
19:24 42.8 °F 41 °F 30 in SW 7.5 mph 9.3 mph 94% 0 in 0.00 W/m2 unknown
19:29 42.8 °F 41 °F 30 in WSW 6.8 mph 9.3 mph 94% 0 in 0.00 W/m2 unknown
19:34 42.8 °F 41 °F 30 in WSW 7.5 mph 9.3 mph 94% 0 in 0.00 W/m2 unknown
19:39 42.8 °F 41 °F 30 in WSW 6.8 mph 9.3 mph 94% 0 in 0.00 W/m2 unknown
19:44 42.8 °F 41 °F 30 in WSW 5.6 mph 8.7 mph 94% 0 in 0.00 W/m2 unknown
19:49 42.8 °F 41 °F 30 in WSW 5.6 mph 8.1 mph 94% 0 in 0.00 W/m2 unknown
19:54 42.8 °F 41 °F 30 in WSW 6.2 mph 9.3 mph 94% 0 in 0.00 W/m2 unknown
19:59 42.8 °F 41 °F 30 in WSW 6.2 mph 8.7 mph 94% 0 in 0.00 W/m2 unknown
20:04 42.8 °F 41 °F 30 in West 6.8 mph 8.1 mph 95% 0 in 0.00 W/m2 unknown
20:09 42.8 °F 41 °F 30 in WSW 6.8 mph 8.1 mph 95% 0 in 0.00 W/m2 unknown
20:14 42.8 °F 41 °F 30 in WSW 6.2 mph 8.1 mph 95% 0 in 0.00 W/m2 unknown
20:19 42.8 °F 41 °F 30 in WSW 5 mph 6.8 mph 95% 0 in 0.00 W/m2 unknown
20:24 42.8 °F 41 °F 30 in West 3.7 mph 6.8 mph 95% 0 in 0.00 W/m2 unknown
20:29 42.8 °F 41 °F 30 in West 5 mph 6.8 mph 95% 0 in 0.00 W/m2 unknown
20:34 42.8 °F 41 °F 30 in West 5 mph 6.8 mph 95% 0 in 0.00 W/m2 unknown
20:39 42.8 °F 41 °F 30 in WSW 5.6 mph 8.1 mph 95% 0 in 0.00 W/m2 unknown
20:44 42.8 °F 41 °F 30 in WSW 6.8 mph 9.3 mph 95% 0 in 0.00 W/m2 unknown
20:49 41 °F 41 °F 30 in SW 6.2 mph 8.7 mph 95% 0 in 0.00 W/m2 unknown
20:54 41 °F 41 °F 30 in WSW 6.2 mph 8.1 mph 95% 0 in 0.00 W/m2 unknown
20:59 41 °F 41 °F 30 in WSW 6.8 mph 8.1 mph 95% 0 in 0.00 W/m2 unknown
21:04 41 °F 41 °F 30 in WSW 6.2 mph 8.1 mph 95% 0 in 0.00 W/m2 unknown
21:09 41 °F 41 °F 30 in SW 5 mph 8.1 mph 95% 0 in 0.00 W/m2 unknown
21:14 41 °F 41 °F 30 in SW 5 mph 6.2 mph 95% 0 in 0.00 W/m2 unknown
21:19 41 °F 41 °F 30 in SW 6.2 mph 8.1 mph 95% 0 in 0.00 W/m2 unknown
21:24 41 °F 41 °F 30 in SW 6.2 mph 8.1 mph 95% 0 in 0.00 W/m2 unknown
21:29 41 °F 41 °F 30 in WSW 6.2 mph 8.1 mph 95% 0 in 0.00 W/m2 unknown
21:34 41 °F 41 °F 30 in WSW 5 mph 6.8 mph 96% 0 in 0.00 W/m2 unknown
21:39 41 °F 41 °F 30 in West 4.3 mph 6.2 mph 96% 0 in 0.00 W/m2 unknown
21:44 41 °F 41 °F 30 in WSW 5 mph 6.2 mph 96% 0 in 0.00 W/m2 unknown
21:49 41 °F 41 °F 30 in WSW 5.6 mph 6.8 mph 96% 0 in 0.00 W/m2 unknown
21:54 41 °F 41 °F 30 in SW 8.1 mph 10.6 mph 96% 0 in 0.00 W/m2 unknown
21:59 41 °F 41 °F 30 in WSW 8.1 mph 9.9 mph 96% 0 in 0.00 W/m2 unknown
22:04 41 °F 41 °F 30 in WSW 8.1 mph 10.6 mph 96% 0 in 0.00 W/m2 unknown
22:09 41 °F 39.2 °F 30 in WSW 6.8 mph 9.9 mph 96% 0 in 0.00 W/m2 unknown
22:14 41 °F 39.2 °F 30 in WSW 6.2 mph 8.1 mph 96% 0 in 0.00 W/m2 unknown
22:19 41 °F 39.2 °F 30 in WSW 6.2 mph 6.8 mph 96% 0 in 0.00 W/m2 unknown
22:24 41 °F 39.2 °F 30 in WSW 4.3 mph 6.8 mph 96% 0 in 0.00 W/m2 unknown
22:29 41 °F 39.2 °F 30 in WSW 6.2 mph 8.7 mph 96% 0 in 0.00 W/m2 unknown
22:34 41 °F 39.2 °F 30 in WSW 8.7 mph 11.8 mph 96% 0 in 0.00 W/m2 unknown
22:39 41 °F 39.2 °F 30 in WSW 6.8 mph 11.8 mph 96% 0 in 0.00 W/m2 unknown
22:44 41 °F 39.2 °F 30 in WSW 5 mph 6.8 mph 97% 0 in 0.00 W/m2 unknown
22:49 41 °F 39.2 °F 30 in WSW 4.3 mph 6.2 mph 97% 0 in 0.00 W/m2 unknown
22:54 41 °F 39.2 °F 30 in WSW 5.6 mph 6.8 mph 96% 0 in 0.00 W/m2 unknown
22:59 41 °F 39.2 °F 30 in WSW 6.2 mph 8.1 mph 97% 0 in 0.00 W/m2 unknown
23:04 41 °F 39.2 °F 30 in SW 5 mph 8.1 mph 97% 0 in 0.00 W/m2 unknown
23:09 41 °F 39.2 °F 30 in SW 5 mph 8.1 mph 97% 0 in 0.00 W/m2 unknown
23:14 41 °F 39.2 °F 29.9 in WSW 6.2 mph 8.1 mph 97% 0 in 0.00 W/m2 unknown
23:19 41 °F 39.2 °F 29.9 in WSW 7.5 mph 10.6 mph 97% 0 in 0.00 W/m2 unknown
23:24 41 °F 39.2 °F 29.9 in WSW 6.8 mph 8.1 mph 97% 0 in 0.00 W/m2 unknown
23:29 41 °F 39.2 °F 29.9 in WSW 6.8 mph 8.1 mph 97% 0 in 0.00 W/m2 unknown
23:34 41 °F 39.2 °F 29.9 in WSW 6.2 mph 8.1 mph 97% 0 in 0.00 W/m2 unknown
23:39 41 °F 39.2 °F 29.9 in WSW 5.6 mph 6.8 mph 97% 0 in 0.00 W/m2 unknown
23:44 41 °F 39.2 °F 29.9 in WSW 5.6 mph 8.1 mph 97% 0 in 0.00 W/m2 unknown
23:49 41 °F 39.2 °F 29.9 in WSW 6.2 mph 9.3 mph 97% 0 in 0.00 W/m2 unknown
23:54 41 °F 39.2 °F 29.9 in West 6.2 mph 8.7 mph 97% 0 in 0.00 W/m2 unknown
23:59 41 °F 39.2 °F 29.9 in WSW 6.2 mph 8.1 mph 97% 0 in 0.00 W/m2 unknown
Stazione Meteorologica MeteoMincio Rivalta s/M (MN)
Con i complimenti di Weather Underground - 4 mb



METEO PILLOLE
L'uragano più violento
Galveston - Texas
Nel 1900 un uragano spazza l'isola con venti oltre 160 Km/h e provoca un onda alta oltre 6 m. Si valuta che siano morte 8000 persone.
Share

Non seguire questo link o sarai bannato dal sito!